createdAt,value
2018-05-15T00:00:30.975Z,76.34
2018-05-15T00:02:59.370Z,76.59
2018-05-15T00:05:28.542Z,77.53
2018-05-15T00:07:56.934Z,76.96
2018-05-15T00:10:25.390Z,77.46
2018-05-15T00:12:53.773Z,77.28
2018-05-15T00:15:22.153Z,77.52
2018-05-15T00:17:50.581Z,77.77
2018-05-15T00:20:18.966Z,78.08
2018-05-15T00:22:47.425Z,77.81
2018-05-15T00:25:15.823Z,78.93
2018-05-15T00:27:44.217Z,78.94
2018-05-15T00:30:12.578Z,80.82
2018-05-15T00:32:40.962Z,80.44
2018-05-15T00:35:10.127Z,79.41
2018-05-15T00:37:38.502Z,77.43
2018-05-15T00:40:06.919Z,77.91
2018-05-15T00:42:35.337Z,78.82
2018-05-15T00:45:03.723Z,78.01
2018-05-15T00:47:32.090Z,77.23
2018-05-15T00:50:00.469Z,78.00
2018-05-15T00:52:28.845Z,78.12
2018-05-15T00:55:14.978Z,78.12
2018-05-15T00:57:43.360Z,78.61
2018-05-15T01:00:12.593Z,78.17
2018-05-15T01:02:40.993Z,79.17
2018-05-15T01:05:09.381Z,79.04
2018-05-15T01:07:37.789Z,78.87
2018-05-15T01:10:06.202Z,79.34
2018-05-15T01:12:34.603Z,79.39
2018-05-15T01:15:02.998Z,79.91
2018-05-15T01:17:31.399Z,78.95
2018-05-15T01:19:59.795Z,79.45
2018-05-15T01:22:28.217Z,78.62
2018-05-15T01:24:57.358Z,78.92
2018-05-15T01:27:25.790Z,78.78
2018-05-15T01:29:54.908Z,78.80
2018-05-15T01:32:23.310Z,79.27
2018-05-15T01:34:51.707Z,80.08
2018-05-15T01:37:20.130Z,80.47
2018-05-15T01:39:48.515Z,80.20
2018-05-15T01:42:16.915Z,80.62
2018-05-15T01:44:45.333Z,79.73
2018-05-15T01:47:13.805Z,79.87
2018-05-15T01:49:42.181Z,80.28
2018-05-15T01:52:10.573Z,79.96
2018-05-15T01:54:38.953Z,78.65
2018-05-15T01:57:07.353Z,79.36
2018-05-15T01:59:35.731Z,78.39
2018-05-15T02:02:04.149Z,78.56
2018-05-15T02:04:32.531Z,78.38
2018-05-15T02:07:00.910Z,80.17
2018-05-15T02:09:29.309Z,80.77
2018-05-15T02:11:57.755Z,81.42
2018-05-15T02:14:26.129Z,80.82
2018-05-15T02:16:54.521Z,81.81
2018-05-15T02:19:22.890Z,82.05
2018-05-15T02:21:51.351Z,83.20
2018-05-15T02:24:19.742Z,82.10
2018-05-15T02:26:48.114Z,81.74
2018-05-15T02:29:16.494Z,82.21
2018-05-15T02:31:45.628Z,82.30
2018-05-15T02:34:14.018Z,83.17
2018-05-15T02:36:42.419Z,82.71
2018-05-15T02:39:10.867Z,83.28
2018-05-15T02:41:39.238Z,84.29
2018-05-15T02:44:07.621Z,83.04
2018-05-15T02:46:36.020Z,83.06
2018-05-15T02:49:04.418Z,83.09
2018-05-15T02:51:32.822Z,83.66
2018-05-15T02:54:01.238Z,83.31
2018-05-15T02:56:30.414Z,83.19
2018-05-15T02:58:59.017Z,83.25
2018-05-15T03:01:28.283Z,83.60
2018-05-15T03:03:56.670Z,84.57
2018-05-15T03:06:25.846Z,84.15
2018-05-15T03:08:54.231Z,85.29
2018-05-15T03:11:22.614Z,85.72
2018-05-15T03:13:51.010Z,84.96
2018-05-15T03:16:19.414Z,85.66
2018-05-15T03:18:47.798Z,85.13
2018-05-15T03:21:16.194Z,85.04
2018-05-15T03:23:44.570Z,86.13
2018-05-15T03:26:12.945Z,85.58
2018-05-15T03:28:41.340Z,85.54
2018-05-15T03:31:09.732Z,85.79
2018-05-15T03:33:38.110Z,86.20
2018-05-15T03:36:06.505Z,86.51
2018-05-15T03:38:34.902Z,86.83
2018-05-15T03:41:04.096Z,87.35
2018-05-15T03:43:33.277Z,87.06
2018-05-15T03:46:01.653Z,87.61
2018-05-15T03:48:30.042Z,87.67
2018-05-15T03:50:58.423Z,87.25
2018-05-15T03:53:26.829Z,87.68
2018-05-15T03:55:56.016Z,87.30
2018-05-15T03:58:24.414Z,87.23
2018-05-15T04:01:11.221Z,87.42
2018-05-15T04:03:57.977Z,87.18
2018-05-15T04:06:44.142Z,88.05
2018-05-15T04:09:12.519Z,87.42
2018-05-15T04:11:40.914Z,87.28
2018-05-15T04:14:09.288Z,87.31
2018-05-15T04:16:37.877Z,87.72
2018-05-15T04:19:06.253Z,87.44
2018-05-15T04:21:34.659Z,87.66
2018-05-15T04:24:03.042Z,87.55
2018-05-15T04:26:32.206Z,87.31
2018-05-15T04:29:00.592Z,87.16
2018-05-15T04:31:29.767Z,87.52
2018-05-15T04:33:58.173Z,87.41
2018-05-15T04:36:27.383Z,87.33
2018-05-15T04:38:55.814Z,87.61
2018-05-15T04:41:24.197Z,87.86
2018-05-15T04:43:52.881Z,87.64
2018-05-15T04:46:21.012Z,87.62
2018-05-15T04:48:50.284Z,87.01
2018-05-15T04:51:18.677Z,87.08
2018-05-15T04:53:47.882Z,87.01
2018-05-15T04:56:17.061Z,86.53
2018-05-15T04:58:45.456Z,86.71
2018-05-15T05:01:13.918Z,86.02
2018-05-15T05:03:42.350Z,85.37
2018-05-15T05:06:11.500Z,84.96
2018-05-15T05:08:39.998Z,83.89
2018-05-15T05:11:08.383Z,84.26
2018-05-15T05:13:36.765Z,83.45
2018-05-15T05:16:05.150Z,82.90
2018-05-15T05:18:33.542Z,81.96
2018-05-15T05:21:01.996Z,81.40
2018-05-15T05:23:30.404Z,79.87
2018-05-15T05:25:58.816Z,79.83
2018-05-15T05:28:28.002Z,79.37
2018-05-15T05:30:56.382Z,77.10
2018-05-15T05:33:24.809Z,75.41
2018-05-15T05:35:53.155Z,72.52
2018-05-15T05:38:21.550Z,68.97
2018-05-15T05:40:50.681Z,67.48
2018-05-15T05:43:19.069Z,65.18
2018-05-15T05:45:47.492Z,64.12
2018-05-15T05:48:16.734Z,61.87
2018-05-15T05:50:45.130Z,60.10
2018-05-15T05:53:13.561Z,60.27
2018-05-15T05:55:41.977Z,56.39
2018-05-15T05:58:11.153Z,57.48
2018-05-15T06:00:39.526Z,55.60
2018-05-15T06:03:07.934Z,56.76
2018-05-15T06:05:37.114Z,56.07
2018-05-15T06:08:05.498Z,56.33
2018-05-15T06:10:33.887Z,58.64
2018-05-15T06:13:02.274Z,56.40
2018-05-15T06:15:30.650Z,55.30
2018-05-15T06:17:59.102Z,54.94
2018-05-15T06:20:27.495Z,55.19
2018-05-15T06:22:55.883Z,52.42
2018-05-15T06:25:24.261Z,51.75
2018-05-15T06:27:52.717Z,51.47
2018-05-15T06:30:21.085Z,52.09
2018-05-15T06:32:50.280Z,48.84
2018-05-15T06:35:18.596Z,49.61
2018-05-15T06:37:46.977Z,48.29
2018-05-15T06:40:15.337Z,48.72
2018-05-15T06:42:43.805Z,48.20
2018-05-15T06:45:12.937Z,47.39
2018-05-15T06:47:41.338Z,46.44
2018-05-15T06:50:09.801Z,46.11
2018-05-15T06:52:38.281Z,48.46
2018-05-15T06:55:06.643Z,48.38
2018-05-15T06:57:35.844Z,48.31
2018-05-15T07:00:04.193Z,46.26
2018-05-15T07:02:32.566Z,44.72
2018-05-15T07:05:00.929Z,44.47
2018-05-15T07:07:29.434Z,42.48
2018-05-15T07:09:57.882Z,39.33
2018-05-15T07:12:26.271Z,38.20
2018-05-15T07:14:54.653Z,38.61
2018-05-15T07:17:23.054Z,40.86
2018-05-15T07:19:51.415Z,36.79
2018-05-15T07:22:19.798Z,34.56
2018-05-15T07:24:48.187Z,35.00
2018-05-15T07:27:16.656Z,35.58
2018-05-15T07:29:44.939Z,33.56
2018-05-15T07:32:14.106Z,35.28
2018-05-15T07:34:42.481Z,34.22
2018-05-15T07:37:10.882Z,31.87
2018-05-15T07:39:39.273Z,32.75
2018-05-15T07:42:08.444Z,33.41
2018-05-15T07:44:36.914Z,33.48
2018-05-15T07:47:05.283Z,32.76
2018-05-15T07:49:33.685Z,33.09
2018-05-15T07:52:02.090Z,32.12
2018-05-15T07:54:30.478Z,32.04
2018-05-15T07:56:58.849Z,32.99
2018-05-15T07:59:27.245Z,32.67
2018-05-15T08:01:55.625Z,30.98
2018-05-15T08:04:24.082Z,31.82
2018-05-15T08:06:52.368Z,30.24
2018-05-15T08:09:20.758Z,32.18
2018-05-15T08:11:49.142Z,32.15
2018-05-15T08:14:17.519Z,31.54
2018-05-15T08:16:45.945Z,31.42
2018-05-15T08:19:15.115Z,28.56
2018-05-15T08:21:43.476Z,31.71
2018-05-15T08:24:11.839Z,31.42
2018-05-15T08:26:40.289Z,31.94
2018-05-15T08:29:09.440Z,33.37
2018-05-15T08:31:37.806Z,30.35
2018-05-15T08:34:06.193Z,31.44
2018-05-15T08:36:34.573Z,30.30
2018-05-15T08:39:02.965Z,29.33
2018-05-15T08:41:31.337Z,27.56
2018-05-15T08:43:59.798Z,25.66
2018-05-15T08:46:28.277Z,28.26
2018-05-15T08:48:57.632Z,27.68
2018-05-15T08:51:26.022Z,27.23
2018-05-15T08:53:54.414Z,28.12
2018-05-15T08:56:22.789Z,28.66
2018-05-15T08:58:51.255Z,24.41
2018-05-15T09:01:19.681Z,30.25
2018-05-15T09:03:48.058Z,28.27
2018-05-15T09:06:16.415Z,24.25
2018-05-15T09:08:44.809Z,24.65
2018-05-15T09:11:13.182Z,26.67
2018-05-15T09:13:41.546Z,24.37
2018-05-15T09:16:09.931Z,25.88
2018-05-15T09:18:38.334Z,26.34
2018-05-15T09:21:06.716Z,27.24
2018-05-15T09:23:35.089Z,26.90
2018-05-15T09:26:03.461Z,26.46
2018-05-15T09:28:31.946Z,26.80
2018-05-15T09:31:00.365Z,25.62
2018-05-15T09:33:28.753Z,24.94
2018-05-15T09:35:57.134Z,26.21
2018-05-15T09:38:25.500Z,26.27
2018-05-15T09:40:53.882Z,24.86
2018-05-15T09:46:38.470Z,25.59
2018-05-15T09:49:06.847Z,27.15
2018-05-15T09:51:35.254Z,26.39
2018-05-15T09:54:04.437Z,28.23
2018-05-15T09:56:32.797Z,27.17
2018-05-15T09:59:01.185Z,28.15
2018-05-15T10:01:29.574Z,26.23
2018-05-15T10:03:58.020Z,27.02
2018-05-15T10:06:26.381Z,25.08
2018-05-15T10:08:55.545Z,28.39
2018-05-15T10:11:23.938Z,28.40
2018-05-15T10:13:52.358Z,29.60
2018-05-15T10:16:20.734Z,27.39
2018-05-15T10:18:49.889Z,26.49
2018-05-15T10:21:18.282Z,25.29
2018-05-15T10:23:46.676Z,27.01
2018-05-15T10:26:15.177Z,24.40
2018-05-15T10:28:44.236Z,26.60
2018-05-15T10:31:12.633Z,25.33
2018-05-15T10:33:41.072Z,28.33
2018-05-15T10:36:09.462Z,23.89
2018-05-15T10:38:37.798Z,26.20
2018-05-15T10:41:06.166Z,23.83
2018-05-15T10:43:34.550Z,26.51
2018-05-15T10:46:02.991Z,25.86
2018-05-15T10:48:31.442Z,24.21
2018-05-15T10:50:59.837Z,27.75
2018-05-15T10:53:28.985Z,27.74
2018-05-15T10:55:57.370Z,29.06
2018-05-15T10:58:25.758Z,27.41
2018-05-15T11:00:54.133Z,27.32
2018-05-15T11:03:22.505Z,29.18
2018-05-15T11:05:50.882Z,28.72
2018-05-15T11:08:19.329Z,27.93
2018-05-15T11:10:48.465Z,25.77
2018-05-15T11:13:16.927Z,28.07
2018-05-15T11:15:45.311Z,28.02
2018-05-15T11:18:49.741Z,29.39
2018-05-15T11:21:35.921Z,30.34
2018-05-15T11:27:05.557Z,32.60
2018-05-15T11:29:33.965Z,29.79
2018-05-15T11:32:02.350Z,27.34
2018-05-15T11:34:30.732Z,27.00
2018-05-15T11:36:59.134Z,26.83
2018-05-15T11:39:27.517Z,29.31
2018-05-15T11:41:55.958Z,31.28
2018-05-15T11:44:24.281Z,31.22
2018-05-15T11:46:52.688Z,31.54
2018-05-15T11:49:22.757Z,32.52
2018-05-15T11:51:51.119Z,34.96
2018-05-15T11:54:18.632Z,32.67
2018-05-15T11:56:47.022Z,31.93
2018-05-15T11:59:15.387Z,31.21
2018-05-15T12:01:43.937Z,31.52
2018-05-15T12:04:12.523Z,32.56
2018-05-15T12:06:40.898Z,32.86
2018-05-15T12:09:09.341Z,33.70
2018-05-15T12:11:37.697Z,31.41
2018-05-15T12:14:06.086Z,30.46
2018-05-15T12:16:34.471Z,29.91
2018-05-15T12:19:02.850Z,30.39
2018-05-15T12:21:31.226Z,34.29
2018-05-15T12:23:59.619Z,36.61
2018-05-15T12:26:27.995Z,31.94
2018-05-15T12:28:56.382Z,29.78
2018-05-15T12:31:24.773Z,30.46
2018-05-15T12:33:53.149Z,26.48
2018-05-15T12:36:22.318Z,25.29
2018-05-15T12:38:50.682Z,28.07
2018-05-15T12:41:19.155Z,28.68
2018-05-15T12:43:47.443Z,28.37
2018-05-15T12:46:15.991Z,29.21
2018-05-15T12:48:44.457Z,31.27
2018-05-15T12:51:12.802Z,31.50
2018-05-15T12:53:41.179Z,31.60
2018-05-15T12:56:10.348Z,32.77
2018-05-15T12:58:38.753Z,32.23
2018-05-15T13:01:07.954Z,29.67
2018-05-15T13:03:37.115Z,27.46
2018-05-15T13:06:05.573Z,29.38
2018-05-15T13:08:33.975Z,26.61
2018-05-15T13:11:02.404Z,26.28
2018-05-15T13:13:30.815Z,24.98
2018-05-15T13:15:59.190Z,26.40
2018-05-15T13:18:28.454Z,24.23
2018-05-15T13:20:56.738Z,24.09
2018-05-15T13:23:25.128Z,24.60
2018-05-15T13:25:53.507Z,23.87
2018-05-15T13:28:22.098Z,22.75
2018-05-15T13:30:50.494Z,22.03
2018-05-15T13:33:18.866Z,25.89
2018-05-15T13:35:47.365Z,27.45
2018-05-15T13:38:16.601Z,31.72
2018-05-15T13:40:44.995Z,30.17
2018-05-15T13:43:13.473Z,31.22
2018-05-15T13:45:41.857Z,28.89
2018-05-15T13:48:10.261Z,27.87
2018-05-15T13:50:38.752Z,27.67
2018-05-15T13:53:07.115Z,26.21
2018-05-15T13:55:35.498Z,26.86
2018-05-15T13:58:03.885Z,25.92
2018-05-15T14:00:32.281Z,23.93
2018-05-15T14:03:00.657Z,26.54
2018-05-15T14:05:29.063Z,27.88
2018-05-15T14:07:57.551Z,30.80
2018-05-15T14:10:25.956Z,28.98
2018-05-15T14:12:55.181Z,30.82
2018-05-15T14:15:23.692Z,31.43
2018-05-15T14:17:52.062Z,31.58
2018-05-15T14:20:21.430Z,30.42
2018-05-15T14:22:50.559Z,28.20
2018-05-15T14:25:18.950Z,26.37
2018-05-15T14:27:47.339Z,24.73
2018-05-15T14:30:15.726Z,25.66
2018-05-15T14:32:44.110Z,25.86
2018-05-15T14:35:12.511Z,24.65
2018-05-15T14:37:41.653Z,26.47
2018-05-15T14:40:10.810Z,29.69
2018-05-15T14:42:56.861Z,32.60
2018-05-15T14:45:25.237Z,33.35
2018-05-15T14:47:53.628Z,33.98
2018-05-15T14:50:22.005Z,35.75
2018-05-15T14:52:50.622Z,36.38
2018-05-15T14:55:19.052Z,35.60
2018-05-15T14:57:47.439Z,35.61
2018-05-15T15:00:15.911Z,35.14
2018-05-15T15:02:44.306Z,32.93
2018-05-15T15:05:12.871Z,32.52
2018-05-15T15:07:41.255Z,32.79
2018-05-15T15:10:09.650Z,29.84
2018-05-15T15:12:38.870Z,28.80
2018-05-15T15:15:08.145Z,29.31
2018-05-15T15:17:36.582Z,30.64
2018-05-15T15:20:05.077Z,35.44
2018-05-15T15:22:33.532Z,35.85
2018-05-15T15:25:02.839Z,33.12
2018-05-15T15:27:31.985Z,32.52
2018-05-15T15:30:00.381Z,31.75
2018-05-15T15:32:28.801Z,30.79
2018-05-15T15:34:57.973Z,28.06
2018-05-15T15:37:26.387Z,26.83
2018-05-15T15:39:55.521Z,28.77
2018-05-15T15:42:24.069Z,27.52
2018-05-15T15:44:52.396Z,28.78
2018-05-15T15:47:20.803Z,28.14
2018-05-15T15:49:49.192Z,29.66
2018-05-15T15:52:17.690Z,30.87
2018-05-15T15:54:46.850Z,30.11
2018-05-15T15:57:15.255Z,29.61
2018-05-15T15:59:43.666Z,31.02
2018-05-15T16:02:13.601Z,32.29
2018-05-15T16:04:42.746Z,33.11
2018-05-15T16:07:11.167Z,32.40
2018-05-15T16:09:41.054Z,31.50
2018-05-15T16:12:09.464Z,32.24
2018-05-15T16:14:37.840Z,32.52
2018-05-15T16:17:07.048Z,32.87
2018-05-15T16:19:35.601Z,31.59
2018-05-15T16:22:04.139Z,34.00
2018-05-15T16:24:32.466Z,35.15
2018-05-15T16:27:00.861Z,33.96
2018-05-15T16:29:29.238Z,36.26
2018-05-15T16:31:57.614Z,34.72
2018-05-15T16:34:26.053Z,34.04
2018-05-15T16:36:55.197Z,34.37
2018-05-15T16:39:23.577Z,34.75
2018-05-15T16:41:51.994Z,34.94
2018-05-15T16:44:20.470Z,33.92
2018-05-15T16:46:48.874Z,34.33
2018-05-15T16:49:17.258Z,34.98
2018-05-15T16:51:45.717Z,35.44
2018-05-15T16:54:14.088Z,33.91
2018-05-15T16:56:42.547Z,34.21
2018-05-15T16:59:10.933Z,34.72
2018-05-15T17:01:39.329Z,34.36
2018-05-15T17:04:07.741Z,34.38
2018-05-15T17:06:36.131Z,33.27
2018-05-15T17:09:06.822Z,34.68
2018-05-15T17:11:35.205Z,34.09
2018-05-15T17:14:03.598Z,33.13
2018-05-15T17:16:31.979Z,33.64
2018-05-15T17:19:00.404Z,35.86
2018-05-15T17:21:28.913Z,35.21
2018-05-15T17:23:58.066Z,33.66
2018-05-15T17:26:26.447Z,34.98
2018-05-15T17:28:54.856Z,35.87
2018-05-15T17:31:23.315Z,37.28
2018-05-15T17:33:51.676Z,36.11
2018-05-15T17:36:20.073Z,36.21
2018-05-15T17:38:48.634Z,37.59
2018-05-15T17:41:17.790Z,38.49
2018-05-15T17:43:46.331Z,37.33
2018-05-15T17:46:14.720Z,37.12
2018-05-15T17:48:43.150Z,37.95
2018-05-15T17:51:11.588Z,38.85
2018-05-15T17:53:40.008Z,38.67
2018-05-15T17:56:08.410Z,40.37
2018-05-15T17:58:36.835Z,40.08
2018-05-15T18:01:05.273Z,38.30
2018-05-15T18:03:33.769Z,39.66
2018-05-15T18:06:02.183Z,37.96
2018-05-15T18:08:30.584Z,37.64
2018-05-15T18:10:58.989Z,39.15
2018-05-15T18:13:27.366Z,39.04
2018-05-15T18:15:55.826Z,39.68
2018-05-15T18:18:24.217Z,38.11
2018-05-15T18:20:52.613Z,39.70
2018-05-15T18:23:21.013Z,37.61
2018-05-15T18:25:49.398Z,38.77
2018-05-15T18:28:17.793Z,40.11
2018-05-15T18:30:46.209Z,40.29
2018-05-15T18:33:15.432Z,41.24
2018-05-15T18:35:44.780Z,40.79
2018-05-15T18:38:13.323Z,40.92
2018-05-15T18:40:41.752Z,40.00
2018-05-15T18:43:10.230Z,41.13
2018-05-15T18:45:38.612Z,41.59
2018-05-15T18:48:07.041Z,43.01
2018-05-15T18:50:36.248Z,41.76
2018-05-15T18:53:05.398Z,42.18
2018-05-15T18:55:33.782Z,43.33
2018-05-15T18:58:02.226Z,43.71
2018-05-15T19:00:30.671Z,45.34
2018-05-15T19:02:59.078Z,44.11
2018-05-15T19:05:28.251Z,43.78
2018-05-15T19:07:56.681Z,45.29
2018-05-15T19:10:25.072Z,45.12
2018-05-15T19:13:25.937Z,47.26
2018-05-15T19:15:54.322Z,46.25
2018-05-15T19:18:22.748Z,45.22
2018-05-15T19:20:51.139Z,45.86
2018-05-15T19:23:19.520Z,46.63
2018-05-15T19:25:47.977Z,47.14
2018-05-15T19:28:16.389Z,47.63
2018-05-15T19:30:44.798Z,48.34
2018-05-15T19:33:17.071Z,48.55
2018-05-15T19:35:46.206Z,49.50
2018-05-15T19:38:14.749Z,50.03
2018-05-15T19:40:51.302Z,50.07
2018-05-15T19:43:19.669Z,49.64
2018-05-15T19:45:48.845Z,49.80
2018-05-15T19:48:17.230Z,49.14
2018-05-15T19:50:46.403Z,49.88
2018-05-15T19:53:14.788Z,50.59
2018-05-15T19:55:43.182Z,51.61
2018-05-15T19:58:11.606Z,52.11
2018-05-15T20:00:40.793Z,52.84
2018-05-15T20:03:09.304Z,52.05
2018-05-15T20:05:37.676Z,53.42
2018-05-15T20:08:06.164Z,52.94
2018-05-15T20:10:35.314Z,52.85
2018-05-15T20:13:03.713Z,53.11
2018-05-15T20:15:32.178Z,54.07
2018-05-15T20:18:00.605Z,54.50
2018-05-15T20:20:29.769Z,54.90
2018-05-15T20:22:58.189Z,55.38
2018-05-15T20:25:27.334Z,55.20
2018-05-15T20:27:55.800Z,56.43
2018-05-15T20:30:24.243Z,57.01
2018-05-15T20:32:54.152Z,57.97
2018-05-15T20:35:22.569Z,58.65
2018-05-15T20:37:51.761Z,57.93
2018-05-15T20:40:20.926Z,58.76
2018-05-15T20:42:49.318Z,61.05
2018-05-15T20:45:17.725Z,60.20
2018-05-15T20:47:47.647Z,62.74
2018-05-15T20:50:16.803Z,62.63
2018-05-15T20:52:45.208Z,61.21
2018-05-15T20:55:13.619Z,61.55
2018-05-15T20:57:42.767Z,61.92
2018-05-15T21:00:11.146Z,63.02
2018-05-15T21:02:39.649Z,63.37
2018-05-15T21:05:08.063Z,64.15
2018-05-15T21:07:37.217Z,64.46
2018-05-15T21:10:05.699Z,65.10
2018-05-15T21:12:34.119Z,65.26
2018-05-15T21:15:02.516Z,65.56
2018-05-15T21:17:31.014Z,65.91
2018-05-15T21:19:59.418Z,66.29
2018-05-15T21:22:27.817Z,65.61
2018-05-15T21:24:56.342Z,65.63
2018-05-15T21:27:24.878Z,66.28
2018-05-15T21:29:53.273Z,67.01
2018-05-15T21:32:21.662Z,66.71
2018-05-15T21:34:50.102Z,68.87
2018-05-15T21:37:19.286Z,67.73
2018-05-15T21:39:47.702Z,69.07
2018-05-15T21:42:16.304Z,68.39
2018-05-15T21:44:44.955Z,69.75
2018-05-15T21:47:13.381Z,69.20
2018-05-15T21:49:42.509Z,69.82
2018-05-15T21:52:10.914Z,70.35
2018-05-15T21:54:39.333Z,70.03
2018-05-15T21:57:07.727Z,69.93
2018-05-15T21:59:36.119Z,70.19
2018-05-15T22:02:04.510Z,70.80
2018-05-15T22:04:32.898Z,71.26
2018-05-15T22:07:01.325Z,71.39
2018-05-15T22:09:29.698Z,72.60
2018-05-15T22:12:15.974Z,71.55
2018-05-15T22:15:02.110Z,71.95
2018-05-15T22:17:48.198Z,71.52
2018-05-15T22:20:34.303Z,71.37
2018-05-15T22:23:01.830Z,70.83
2018-05-15T22:25:31.123Z,70.94
2018-05-15T22:27:59.526Z,70.68
2018-05-15T22:30:28.850Z,70.72
2018-05-15T22:32:57.247Z,70.29
2018-05-15T22:35:25.823Z,70.68
2018-05-15T22:37:54.225Z,70.69
2018-05-15T22:40:22.637Z,70.51
2018-05-15T22:42:51.026Z,69.99
2018-05-15T22:45:19.417Z,69.81
2018-05-15T22:47:47.791Z,68.24
2018-05-15T22:50:16.169Z,67.52
2018-05-15T22:52:44.581Z,68.76
2018-05-15T22:55:13.752Z,67.52
2018-05-15T22:57:42.163Z,67.09
2018-05-15T23:00:11.334Z,67.44
2018-05-15T23:02:39.723Z,68.07
2018-05-15T23:05:08.129Z,67.78
2018-05-15T23:07:37.263Z,67.83
2018-05-15T23:10:05.734Z,67.70
2018-05-15T23:12:34.118Z,67.61
2018-05-15T23:15:02.500Z,66.83
2018-05-15T23:17:30.954Z,66.97
2018-05-15T23:20:00.106Z,67.52
2018-05-15T23:22:42.179Z,67.82
2018-05-15T23:25:10.570Z,67.17
2018-05-15T23:27:38.958Z,66.21
2018-05-15T23:30:07.445Z,66.22
2018-05-15T23:32:35.842Z,66.61
2018-05-15T23:35:04.218Z,66.18
2018-05-15T23:37:32.594Z,66.23
2018-05-15T23:40:01.003Z,66.23
2018-05-15T23:42:29.381Z,66.25
2018-05-15T23:44:57.789Z,65.81
2018-05-15T23:47:26.219Z,66.50
2018-05-15T23:49:54.617Z,65.86
2018-05-15T23:52:23.069Z,66.63
2018-05-15T23:54:52.260Z,64.54
2018-05-15T23:57:21.442Z,64.87
2018-05-15T23:59:49.833Z,63.36
